Time;durP1;ratioP1;P1;durP2;ratioP2;P2;SDS_P1;SDS_P2;PMS_P1;PMS_P2;Temp;Humidity;BMP_temperature;BMP_pressure;BME280_temperature;BME280_humidity;BME280_pressure;Samples;Min_cycle;Max_cycle;Signal;HPM_P1;HPM_P2
2021/03/06 00:00:15;;;;;;;20.65;10.25;;;;;;;-2.72;75.57;101290.59;1700407;83;25872;-61
2021/03/06 00:02:44;;;;;;;27.42;10.23;;;;;;;-2.70;75.64;101301.00;1700415;84;25730;-61
2021/03/06 00:05:13;;;;;;;20.02;9.73;;;;;;;-2.69;75.64;101298.64;1700127;84;25738;-61
2021/03/06 00:07:41;;;;;;;17.82;10.05;;;;;;;-2.72;75.60;101301.19;1700903;84;26076;-60
2021/03/06 00:10:12;;;;;;;20.10;9.23;;;;;;;-2.72;75.59;101308.33;1700621;84;25730;-62
2021/03/06 00:12:43;;;;;;;18.85;8.95;;;;;;;-2.75;75.50;101300.25;1700447;84;25719;-62
2021/03/06 00:15:14;;;;;;;21.60;9.40;;;;;;;-2.76;75.46;101301.77;1700538;83;25727;-61
2021/03/06 00:17:40;;;;;;;13.03;8.03;;;;;;;-2.77;75.56;101308.09;1700504;84;25706;-60
2021/03/06 00:20:09;;;;;;;19.62;9.25;;;;;;;-2.78;75.75;101309.91;1700503;84;26534;-61
2021/03/06 00:22:37;;;;;;;15.00;8.05;;;;;;;-2.79;75.78;101307.45;1700674;84;25827;-61
2021/03/06 00:25:11;;;;;;;16.60;8.88;;;;;;;-2.80;76.04;101310.61;1700338;84;25993;-60
2021/03/06 00:27:39;;;;;;;18.67;8.93;;;;;;;-2.81;76.08;101307.64;1711514;82;25430;-60
2021/03/06 00:30:13;;;;;;;18.10;8.75;;;;;;;-2.80;76.17;101308.48;1712671;83;25667;-60
2021/03/06 00:32:41;;;;;;;19.65;9.25;;;;;;;-2.83;76.33;101313.64;1712632;83;26277;-59
2021/03/06 00:35:10;;;;;;;17.42;8.35;;;;;;;-2.83;76.46;101318.94;1713013;83;25724;-60
2021/03/06 00:37:38;;;;;;;21.02;8.48;;;;;;;-2.83;76.48;101314.48;1713043;83;26308;-60
2021/03/06 00:40:27;;;;;;;21.42;8.63;;;;;;;-2.82;76.53;101309.99;1713081;83;25667;-60
2021/03/06 00:42:54;;;;;;;19.37;8.53;;;;;;;-2.84;76.58;101310.70;1713418;83;25752;-60
2021/03/06 00:45:21;;;;;;;16.12;9.30;;;;;;;-2.83;76.56;101305.70;1725957;83;26050;-61
2021/03/06 00:47:48;;;;;;;15.95;8.20;;;;;;;-2.83;76.74;101314.97;1725858;83;25792;-59
2021/03/06 00:50:32;;;;;;;19.98;9.00;;;;;;;-2.84;76.70;101310.70;1725752;83;25605;-59
2021/03/06 00:52:59;;;;;;;22.32;9.93;;;;;;;-2.83;76.67;101317.12;1726101;83;25833;-60
2021/03/06 00:55:26;;;;;;;19.73;9.25;;;;;;;-2.84;76.66;101311.51;1726251;82;25752;-60
2021/03/06 00:57:54;;;;;;;20.40;8.88;;;;;;;-2.85;76.66;101308.54;1726047;83;25598;-60
2021/03/06 01:04:11;;;;;;;21.27;8.80;;;;;;;-2.85;76.76;101304.56;1726063;82;25637;-60
2021/03/06 01:06:38;;;;;;;21.65;8.73;;;;;;;-2.86;76.77;101312.22;1726094;83;25649;-59
2021/03/06 01:09:07;;;;;;;17.40;8.48;;;;;;;-2.87;76.89;101301.30;1726104;83;25720;-59
2021/03/06 01:11:34;;;;;;;20.05;8.88;;;;;;;-2.86;77.29;101298.14;1726176;83;25697;-59
2021/03/06 01:14:01;;;;;;;37.17;15.08;;;;;;;-2.89;76.90;101303.33;1725982;83;26233;-60
2021/03/06 01:16:28;;;;;;;22.77;10.10;;;;;;;-2.89;76.97;101300.69;1713570;83;25658;-60
2021/03/06 01:18:54;;;;;;;18.50;8.75;;;;;;;-2.89;77.06;101294.58;1706499;83;25655;-59
2021/03/06 01:21:22;;;;;;;18.57;8.45;;;;;;;-2.89;77.06;101292.74;1726002;83;25755;-60
2021/03/06 01:23:50;;;;;;;21.00;8.68;;;;;;;-2.89;76.89;101287.45;1726028;83;25618;-60
2021/03/06 01:26:17;;;;;;;20.35;8.80;;;;;;;-2.91;76.91;101293.45;1725995;83;26668;-59
2021/03/06 01:28:44;;;;;;;22.82;9.75;;;;;;;-2.91;76.98;101296.58;1725713;83;25759;-59
2021/03/06 01:31:10;;;;;;;19.98;8.28;;;;;;;-2.91;76.90;101304.53;1726033;83;25698;-60
2021/03/06 01:33:37;;;;;;;15.15;8.93;;;;;;;-2.91;77.03;101305.84;1726042;83;26273;-59
2021/03/06 01:36:06;;;;;;;20.10;8.78;;;;;;;-2.89;77.00;101307.82;1725923;83;25664;-60
2021/03/06 01:38:33;;;;;;;21.93;9.13;;;;;;;-2.87;77.12;101318.52;1726165;83;26867;-59
2021/03/06 01:40:59;;;;;;;20.17;8.55;;;;;;;-2.85;77.29;101314.35;1725852;83;25893;-60
2021/03/06 01:43:26;;;;;;;16.97;7.80;;;;;;;-2.82;77.18;101319.27;1726040;83;25799;-60
2021/03/06 01:45:53;;;;;;;25.25;11.73;;;;;;;-2.82;77.11;101313.97;1726040;83;25759;-60
2021/03/06 01:48:20;;;;;;;27.90;13.18;;;;;;;-2.80;76.94;101307.16;1713704;83;25650;-61
2021/03/06 01:50:48;;;;;;;27.45;12.00;;;;;;;-2.80;76.76;101314.58;1706584;83;25939;-60
2021/03/06 01:53:15;;;;;;;29.00;13.88;;;;;;;-2.80;76.72;101318.55;1733916;81;25715;-60
2021/03/06 01:55:48;;;;;;;20.48;11.28;;;;;;;-2.79;76.64;101314.06;1733977;82;25671;-60
2021/03/06 01:58:16;;;;;;;20.35;9.85;;;;;;;-2.79;76.50;101314.91;1713739;83;25563;-60
2021/03/06 02:05:08;;;;;;;27.20;13.22;;;;;;;-2.78;76.47;101310.42;1693859;84;26221;-60
2021/03/06 02:08:15;;;;;;;28.57;12.28;;;;;;;-2.79;76.36;101309.61;1704445;84;25786;-60
2021/03/06 02:11:36;;;;;;;24.15;11.05;;;;;;;-2.80;76.23;101309.80;1704640;84;25703;-60
2021/03/06 02:37:29;;;;;;;18.40;8.78;;;;;;;-2.95;76.25;101317.34;1614356;83;26775;-59
2021/03/06 02:39:57;;;;;;;19.87;8.68;;;;;;;-2.97;76.31;101321.20;1711421;83;26229;-58
2021/03/06 02:42:28;;;;;;;18.55;8.70;;;;;;;-2.99;76.22;101321.40;1709729;83;25727;-59
2021/03/06 02:44:58;;;;;;;19.82;8.73;;;;;;;-3.01;76.27;101319.45;1716528;82;26399;-59
2021/03/06 02:47:26;;;;;;;16.02;8.85;;;;;;;-3.00;76.19;101325.05;1731358;82;25674;-60
2021/03/06 02:49:56;;;;;;;18.30;9.78;;;;;;;-3.03;76.17;101328.07;1731907;82;25667;-59
2021/03/06 02:52:24;;;;;;;18.27;9.90;;;;;;;-3.04;76.09;101326.45;1731251;82;26809;-59
2021/03/06 02:54:52;;;;;;;19.52;9.18;;;;;;;-3.06;76.07;101324.00;1731243;82;25702;-59
2021/03/06 02:57:45;;;;;;;16.40;9.68;;;;;;;-3.08;76.14;101328.67;1731221;82;26018;-59
2021/03/06 03:00:26;;;;;;;21.70;10.58;;;;;;;-3.11;76.11;101329.05;1736758;81;26049;-61
2021/03/06 03:03:13;;;;;;;14.40;9.60;;;;;;;-3.12;76.29;101335.34;1725163;82;25750;-60
2021/03/06 03:06:05;;;;;;;18.42;9.35;;;;;;;-3.13;76.25;101335.05;1665847;86;27432;-61
2021/03/06 03:09:11;;;;;;;18.77;8.80;;;;;;;-3.14;76.13;101328.11;1694964;84;25516;-61
2021/03/06 03:11:49;;;;;;;15.60;8.45;;;;;;;-3.16;76.08;101331.97;1670842;85;25610;-60
2021/03/06 03:14:24;;;;;;;16.93;8.68;;;;;;;-3.19;76.11;101327.35;1673968;85;25671;-59
2021/03/06 03:16:56;;;;;;;16.07;8.98;;;;;;;-3.21;76.13;101337.32;1676694;85;25675;-60
2021/03/06 03:19:52;;;;;;;17.67;8.65;;;;;;;-3.23;76.06;101345.16;1677220;85;26272;-60
2021/03/06 03:22:22;;;;;;;16.17;7.75;;;;;;;-3.25;76.14;101355.92;1677259;85;25755;-60
2021/03/06 03:24:51;;;;;;;18.32;9.03;;;;;;;-3.30;75.99;101354.36;1677716;85;26311;-60
2021/03/06 03:27:20;;;;;;;21.95;10.25;;;;;;;-3.31;76.12;101362.48;1677826;85;25665;-60
2021/03/06 03:33:00;;;;;;;20.32;9.60;;;;;;;-3.34;76.01;101369.47;1657356;86;26454;-59
2021/03/06 03:35:28;;;;;;;17.62;9.63;;;;;;;-3.33;76.30;101376.41;1659727;86;25681;-60
2021/03/06 03:37:56;;;;;;;18.62;9.18;;;;;;;-3.36;76.14;101374.95;1659996;86;25772;-59
2021/03/06 03:42:53;;;;;;;16.12;9.33;;;;;;;-3.41;76.18;101379.99;1647527;86;25614;-61
2021/03/06 03:45:22;;;;;;;17.45;8.30;;;;;;;-3.43;76.07;101377.53;1682418;85;25740;-60
2021/03/06 03:47:48;;;;;;;20.00;9.65;;;;;;;-3.45;76.33;101378.75;1682445;85;25720;-60
2021/03/06 03:50:17;;;;;;;17.25;8.98;;;;;;;-3.48;76.29;101374.64;1682331;85;25703;-60
2021/03/06 03:52:49;;;;;;;20.35;9.20;;;;;;;-3.50;76.49;101384.59;1682485;85;25720;-60
2021/03/06 03:55:18;;;;;;;19.57;9.15;;;;;;;-3.50;76.58;101381.95;1682577;85;25614;-60
2021/03/06 03:57:48;;;;;;;21.00;9.17;;;;;;;-3.52;76.56;101387.94;1682603;85;28110;-61
2021/03/06 04:00:18;;;;;;;19.42;9.50;;;;;;;-3.51;76.58;101385.59;1682003;85;25733;-60
2021/03/06 04:02:47;;;;;;;18.55;8.83;;;;;;;-3.52;76.64;101389.27;1682368;85;25661;-60
2021/03/06 04:05:14;;;;;;;22.10;9.33;;;;;;;-3.52;76.62;101392.39;1682438;85;25688;-60
2021/03/06 04:07:49;;;;;;;20.10;9.28;;;;;;;-3.52;76.62;101392.39;1682439;85;25732;-60
2021/03/06 04:10:20;;;;;;;19.57;9.30;;;;;;;-3.53;76.69;101401.35;1682463;85;25951;-60
2021/03/06 04:12:47;;;;;;;17.98;9.00;;;;;;;-3.54;76.71;101400.54;1682232;85;26403;-60
2021/03/06 04:15:17;;;;;;;15.50;9.70;;;;;;;-3.55;76.80;101397.57;1682347;85;25672;-60
2021/03/06 04:17:44;;;;;;;22.15;8.95;;;;;;;-3.55;76.85;101393.60;1682486;85;25681;-60
2021/03/06 04:20:15;;;;;;;18.62;9.35;;;;;;;-3.54;76.77;101391.77;1682400;85;25783;-60
2021/03/06 04:22:43;;;;;;;17.55;9.15;;;;;;;-3.54;76.97;101397.89;1682474;85;25770;-60
2021/03/06 04:25:12;;;;;;;18.20;8.85;;;;;;;-3.53;76.92;101409.28;1682327;85;26072;-60
2021/03/06 04:27:40;;;;;;;22.43;9.53;;;;;;;-3.54;76.85;101411.12;1682680;85;25688;-60
2021/03/06 04:30:09;;;;;;;21.57;9.18;;;;;;;-3.55;76.93;101408.15;1682480;85;25757;-60
2021/03/06 04:32:38;;;;;;;18.80;8.70;;;;;;;-3.53;76.87;101410.61;1682550;85;25678;-60
2021/03/06 04:35:08;;;;;;;21.02;9.08;;;;;;;-3.52;76.83;101410.42;1682583;85;25778;-60
2021/03/06 04:37:36;;;;;;;18.05;8.83;;;;;;;-3.53;76.80;101419.36;1682463;85;25668;-60
2021/03/06 04:40:06;;;;;;;21.05;9.15;;;;;;;-3.52;76.84;101421.48;1682499;85;26299;-60
2021/03/06 04:42:33;;;;;;;22.32;10.03;;;;;;;-3.54;76.81;101422.19;1691860;84;25702;-60
2021/03/06 04:45:00;;;;;;;20.50;10.10;;;;;;;-3.55;76.85;101422.70;1695461;84;25783;-60
2021/03/06 04:47:28;;;;;;;23.73;8.88;;;;;;;-3.54;76.79;101423.02;1695518;84;26746;-60
2021/03/06 04:49:54;;;;;;;20.68;9.23;;;;;;;-3.53;76.80;101429.13;1686668;84;25802;-60
2021/03/06 04:52:22;;;;;;;18.02;9.10;;;;;;;-3.54;76.67;101427.48;1682952;85;25659;-60
2021/03/06 04:54:49;;;;;;;20.52;10.23;;;;;;;-3.52;76.81;101436.03;1682895;85;25682;-60
2021/03/06 04:57:16;;;;;;;23.00;9.75;;;;;;;-3.53;76.73;101433.91;1683126;85;25779;-60
2021/03/06 04:59:44;;;;;;;22.73;9.03;;;;;;;-3.53;76.78;101441.03;1683074;85;25793;-60
2021/03/06 05:02:11;;;;;;;18.37;8.28;;;;;;;-3.56;76.86;101440.88;1682866;85;25705;-60
2021/03/06 05:04:38;;;;;;;19.67;9.15;;;;;;;-3.57;76.87;101440.59;1682992;85;25722;-60
2021/03/06 05:07:04;;;;;;;13.78;8.48;;;;;;;-3.58;76.92;101445.55;1682942;85;25598;-59
2021/03/06 05:09:31;;;;;;;17.98;8.03;;;;;;;-3.60;76.98;101443.59;1682957;84;25589;-60
2021/03/06 05:11:58;;;;;;;16.75;8.10;;;;;;;-3.59;77.11;101449.22;1682989;85;25804;-60
2021/03/06 05:14:25;;;;;;;17.05;8.53;;;;;;;-3.59;77.04;101449.22;1682883;85;25774;-59
2021/03/06 05:16:53;;;;;;;20.25;8.35;;;;;;;-3.60;77.07;101444.92;1682977;85;25693;-60
2021/03/06 05:19:20;;;;;;;18.67;8.38;;;;;;;-3.59;77.14;101446.06;1682915;85;25664;-60
2021/03/06 05:21:47;;;;;;;19.23;8.80;;;;;;;-3.58;77.17;101445.55;1683041;85;25825;-60
2021/03/06 05:24:14;;;;;;;17.00;8.93;;;;;;;-3.56;77.17;101447.50;1682905;85;25896;-60
2021/03/06 05:26:40;;;;;;;19.50;8.33;;;;;;;-3.54;77.24;101447.31;1682902;85;25758;-60
2021/03/06 05:29:07;;;;;;;23.25;9.08;;;;;;;-3.52;77.35;101453.23;1683011;85;25730;-60
2021/03/06 05:31:34;;;;;;;17.60;7.80;;;;;;;-3.49;77.41;101455.51;1683013;85;25767;-60
2021/03/06 05:34:03;;;;;;;18.32;7.95;;;;;;;-3.45;77.47;101450.98;1682952;85;25636;-61
2021/03/06 05:36:30;;;;;;;18.53;8.73;;;;;;;-3.40;77.52;101455.21;1683209;84;26253;-61
2021/03/06 05:38:57;;;;;;;19.02;8.28;;;;;;;-3.33;77.60;101459.25;1682818;85;25633;-61
2021/03/06 05:41:24;;;;;;;17.50;7.83;;;;;;;-3.28;77.64;101462.66;1683070;83;25657;-61
2021/03/06 05:43:51;;;;;;;15.55;7.80;;;;;;;-3.23;77.69;101461.08;1683625;85;26367;-60
2021/03/06 05:46:19;;;;;;;18.40;7.83;;;;;;;-3.16;77.74;101464.31;1682670;85;25653;-60
2021/03/06 05:48:46;;;;;;;19.17;8.53;;;;;;;-3.10;77.73;101466.18;1682587;85;26732;-60
2021/03/06 05:51:14;;;;;;;18.25;7.80;;;;;;;-3.03;77.82;101471.87;1682471;85;25660;-61
2021/03/06 05:53:42;;;;;;;16.27;7.75;;;;;;;-2.93;77.90;101474.17;1682545;85;25678;-60
2021/03/06 05:56:11;;;;;;;15.68;8.03;;;;;;;-2.82;78.14;101476.83;1682471;85;25660;-60
2021/03/06 05:58:41;;;;;;;17.57;7.78;;;;;;;-2.70;78.15;101475.80;1682632;85;25722;-61
2021/03/06 06:01:12;;;;;;;15.03;7.92;;;;;;;-2.57;78.35;101479.89;1682470;85;25851;-61
2021/03/06 06:03:41;;;;;;;17.23;7.03;;;;;;;-2.45;78.26;101485.48;1682369;85;25743;-60
2021/03/06 06:06:09;;;;;;;13.75;7.53;;;;;;;-2.36;78.00;101487.47;1682638;85;26764;-59
2021/03/06 06:08:38;;;;;;;17.40;7.22;;;;;;;-2.26;78.14;101482.13;1682608;85;25684;-61
2021/03/06 06:11:04;;;;;;;15.15;7.78;;;;;;;-2.13;78.13;101484.05;1682526;85;25613;-60
2021/03/06 06:13:31;;;;;;;16.35;7.67;;;;;;;-2.00;78.17;101484.61;1682474;85;25744;-60
2021/03/06 06:15:59;;;;;;;14.93;7.75;;;;;;;-1.86;78.12;101492.64;1673278;85;26483;-60
2021/03/06 06:18:27;;;;;;;15.13;7.80;;;;;;;-1.74;78.01;101501.67;1668321;85;25880;-64
2021/03/06 06:20:54;;;;;;;11.53;7.63;;;;;;;-1.61;78.03;101494.28;1675097;84;25652;-59
2021/03/06 06:23:21;;;;;;;20.35;8.25;;;;;;;-1.48;77.82;101500.97;1675869;85;25747;-61
2021/03/06 06:25:48;;;;;;;16.77;8.33;;;;;;;-1.38;77.66;101497.92;1674826;85;26319;-59
2021/03/06 06:28:15;;;;;;;17.77;8.80;;;;;;;-1.33;77.19;101498.98;1683854;80;27067;-59
2021/03/06 06:30:42;;;;;;;22.20;9.18;;;;;;;-1.26;77.03;101504.80;1672167;84;25646;-60
2021/03/06 06:33:09;;;;;;;19.57;8.40;;;;;;;-1.19;76.95;101511.77;1667247;84;26358;-60
2021/03/06 06:35:43;;;;;;;22.45;9.40;;;;;;;-1.06;77.02;101516.28;1722713;81;25643;-59
2021/03/06 06:38:10;;;;;;;20.52;8.88;;;;;;;-0.84;77.38;101518.77;1737864;81;26677;-59
2021/03/06 06:40:40;;;;;;;19.95;8.28;;;;;;;-0.60;77.51;101523.99;1750140;81;25670;-60
2021/03/06 06:43:25;;;;;;;17.52;7.72;;;;;;;-0.33;77.57;101526.13;1750298;81;25615;-60
2021/03/06 06:45:52;;;;;;;18.07;8.88;;;;;;;-0.14;76.81;101527.64;1750512;81;26298;-58
2021/03/06 06:48:19;;;;;;;18.15;8.05;;;;;;;0.15;77.11;101526.34;1750543;81;25653;-59
2021/03/06 06:50:46;;;;;;;20.40;8.55;;;;;;;0.41;77.15;101531.28;1750381;81;25775;-60
2021/03/06 06:53:26;;;;;;;18.48;8.83;;;;;;;0.54;76.34;101533.89;1750356;81;25632;-60
2021/03/06 06:55:53;;;;;;;16.65;7.67;;;;;;;0.64;75.69;101532.11;1750514;81;25700;-60
2021/03/06 06:58:35;;;;;;;12.28;6.72;;;;;;;0.70;75.23;101533.94;1750530;81;25641;-60
2021/03/06 07:01:23;;;;;;;14.80;6.97;;;;;;;0.73;74.45;101532.16;1750389;81;25627;-60
2021/03/06 07:03:56;;;;;;;18.23;7.20;;;;;;;0.68;73.75;101538.64;1739924;81;26877;-60
2021/03/06 07:06:23;;;;;;;13.72;7.08;;;;;;;0.64;73.54;101549.42;1746042;81;25597;-61
2021/03/06 07:08:50;;;;;;;14.43;7.25;;;;;;;0.72;74.25;101545.19;1750547;81;25764;-61
2021/03/06 07:11:26;;;;;;;15.43;7.05;;;;;;;0.98;74.91;101546.88;1750423;81;25609;-61
2021/03/06 07:13:53;;;;;;;19.80;7.60;;;;;;;1.22;74.79;101547.95;1750471;81;25698;-60
2021/03/06 07:16:20;;;;;;;16.20;7.35;;;;;;;1.35;73.87;101554.25;1750397;81;26741;-61
2021/03/06 07:19:00;;;;;;;14.40;6.83;;;;;;;1.43;73.26;101545.96;1750418;81;25653;-61
2021/03/06 07:21:27;;;;;;;17.30;8.30;;;;;;;1.59;73.72;101555.29;1750520;81;25674;-61
2021/03/06 07:23:54;;;;;;;14.85;6.95;;;;;;;1.92;73.90;101553.64;1750447;81;25696;-61
2021/03/06 07:26:21;;;;;;;19.87;8.38;;;;;;;2.23;73.83;101551.89;1750551;81;25675;-61
2021/03/06 07:28:48;;;;;;;15.68;8.18;;;;;;;2.51;73.05;101550.03;1750738;81;25694;-61
2021/03/06 07:31:19;;;;;;;14.58;7.42;;;;;;;2.77;72.26;101542.20;1731231;81;25712;-60
2021/03/06 07:33:46;;;;;;;13.98;6.45;;;;;;;2.88;71.02;101546.48;1728684;82;25656;-61
2021/03/06 07:36:12;;;;;;;9.85;6.22;;;;;;;2.85;70.35;101539.74;1716264;82;25625;-62
2021/03/06 07:38:41;;;;;;;13.13;6.53;;;;;;;2.82;70.16;101532.70;1716877;82;25757;-61
2021/03/06 07:41:11;;;;;;;10.70;6.30;;;;;;;2.78;69.19;101539.83;1707959;82;25789;-62
2021/03/06 07:43:43;;;;;;;16.40;6.83;;;;;;;2.70;69.25;101536.13;1703437;83;25721;-62
2021/03/06 07:48:46;;;;;;;11.63;6.58;;;;;;;2.89;69.53;101544.11;1639038;86;25723;-65
2021/03/06 07:51:17;;;;;;;15.23;6.78;;;;;;;3.40;69.50;101541.39;1682399;84;25272;-61
2021/03/06 07:53:49;;;;;;;;;;;;;;;3.98;69.35;101538.98;1681796;85;27242;-61
2021/03/06 07:56:15;;;;;;;12.53;5.67;;;;;;;4.34;68.46;101542.42;1686302;84;25719;-64
2021/03/06 07:58:54;;;;;;;13.70;5.62;;;;;;;4.42;66.99;101539.38;1689409;84;25677;-62
2021/03/06 08:01:31;;;;;;;13.60;5.58;;;;;;;4.38;67.14;101552.97;1690642;83;25770;-61
2021/03/06 08:04:04;;;;;;;10.18;4.92;;;;;;;4.49;66.86;101551.61;1690279;83;25689;-61
2021/03/06 08:06:34;;;;;;;10.45;5.35;;;;;;;4.54;66.35;101550.07;1689506;84;25892;-61
2021/03/06 08:09:11;;;;;;;14.03;5.47;;;;;;;4.59;66.43;101552.31;1689298;84;25790;-63
2021/03/06 08:11:44;;;;;;;9.25;5.50;;;;;;;4.59;65.69;101560.36;1690062;83;36985;-62
2021/03/06 08:14:34;;;;;;;9.78;4.85;;;;;;;4.43;65.01;101562.45;1689339;83;25708;-61
2021/03/06 08:17:13;;;;;;;13.62;5.75;;;;;;;4.27;64.47;101562.14;1687302;83;25781;-61
2021/03/06 08:19:48;;;;;;;14.28;5.50;;;;;;;3.97;63.72;101566.80;1688994;83;26217;-66
2021/03/06 08:22:17;;;;;;;8.90;4.90;;;;;;;3.78;64.40;101564.77;1689590;83;25766;-60
2021/03/06 08:24:47;;;;;;;9.98;5.05;;;;;;;3.68;64.56;101568.03;1689627;84;25823;-61
2021/03/06 08:27:15;;;;;;;11.35;5.72;;;;;;;3.58;64.65;101566.45;1690053;84;25598;-61
2021/03/06 08:29:46;;;;;;;12.85;5.78;;;;;;;3.66;64.94;101566.09;1691553;84;25682;-61
2021/03/06 08:32:30;;;;;;;13.65;5.50;;;;;;;3.82;65.04;101564.07;1689704;83;25905;-62
2021/03/06 08:35:18;;;;;;;12.53;4.80;;;;;;;3.88;65.04;101563.16;1694018;83;25671;-62
2021/03/06 08:37:47;;;;;;;10.90;5.40;;;;;;;3.82;64.16;101560.59;1660702;85;25828;-61
2021/03/06 08:40:24;;;;;;;11.65;5.10;;;;;;;3.89;64.33;101559.94;1677889;84;25747;-61
2021/03/06 08:42:57;;;;;;;10.55;5.20;;;;;;;4.02;64.65;101558.87;1635835;87;25817;-62
2021/03/06 08:45:30;;;;;;;10.82;4.53;;;;;;;4.21;64.64;101559.58;1632518;86;25809;-61
2021/03/06 08:48:02;;;;;;;10.88;5.40;;;;;;;4.43;64.76;101563.27;1630914;85;25789;-61
2021/03/06 08:50:32;;;;;;;10.20;4.87;;;;;;;5.06;65.68;101571.44;1685890;85;25623;-61
2021/03/06 08:53:02;;;;;;;8.98;4.25;;;;;;;6.01;65.86;101570.33;1687080;85;25843;-62
2021/03/06 08:55:40;;;;;;;12.55;4.70;;;;;;;6.62;63.75;101577.55;1656169;86;25376;-60
2021/03/06 08:58:10;;;;;;;9.88;3.70;;;;;;;6.87;61.72;101575.15;1656207;86;26140;-59
2021/03/06 09:00:47;;;;;;;;;;;;;;;7.33;61.51;101565.92;1654464;86;25743;-60
2021/03/06 09:03:26;;;;;;;8.50;3.90;;;;;;;8.01;60.76;101566.95;1667025;86;25713;-58
2021/03/06 09:05:57;;;;;;;6.75;3.80;;;;;;;8.57;60.16;101557.01;1663532;85;25668;-62
2021/03/06 09:08:27;;;;;;;7.28;4.35;;;;;;;8.80;58.69;101556.27;1659097;86;26115;-62
2021/03/06 09:10:59;;;;;;;8.83;3.75;;;;;;;8.70;57.27;101561.11;1659164;86;25796;-62
2021/03/06 09:13:31;;;;;;;5.35;2.77;;;;;;;8.54;56.36;101559.42;1659072;86;25679;-63
2021/03/06 09:16:05;;;;;;;7.72;2.83;;;;;;;8.59;56.33;101561.59;1649528;86;25781;-63
2021/03/06 09:18:38;;;;;;;5.78;2.33;;;;;;;8.75;56.55;101560.30;1646110;86;25737;-63
2021/03/06 09:21:15;;;;;;;5.47;2.65;;;;;;;8.75;55.04;101551.69;1647480;86;25855;-62
2021/03/06 09:23:46;;;;;;;7.28;2.62;;;;;;;8.51;53.86;101555.39;1647518;86;25718;-63
2021/03/06 09:26:19;;;;;;;8.75;2.77;;;;;;;8.33;51.76;101555.81;1646138;86;25685;-64
2021/03/06 09:28:53;;;;;;;9.00;3.05;;;;;;;7.98;51.46;101547.80;1647333;86;25352;-65
2021/03/06 09:31:28;;;;;;;8.60;3.40;;;;;;;7.71;52.40;101550.59;1646850;86;25781;-64
2021/03/06 09:33:56;;;;;;;7.30;3.05;;;;;;;7.73;52.40;101548.45;1654479;86;25835;-63
2021/03/06 09:36:29;;;;;;;7.15;3.22;;;;;;;7.45;52.01;101545.82;1642106;86;25809;-62
2021/03/06 09:39:04;;;;;;;9.18;3.50;;;;;;;7.13;51.76;101547.16;1647298;86;25793;-62
2021/03/06 09:41:38;;;;;;;7.17;3.15;;;;;;;6.86;52.13;101546.65;1646425;86;25644;-66
2021/03/06 09:44:07;;;;;;;9.08;3.08;;;;;;;6.89;54.13;101541.28;1651476;86;25927;-66
2021/03/06 09:46:37;;;;;;;7.62;2.52;;;;;;;7.30;54.84;101538.97;1627535;87;26087;-66
2021/03/06 09:49:14;;;;;;;7.47;2.77;;;;;;;7.57;51.43;101540.80;1649611;86;25742;-65
2021/03/06 09:51:48;;;;;;;6.85;3.12;;;;;;;7.55;51.82;101549.13;1633163;87;26045;-67
2021/03/06 09:54:17;;;;;;;6.17;3.00;;;;;;;7.75;50.97;101548.48;1630600;87;25735;-63
2021/03/06 09:56:53;;;;;;;8.95;4.42;;;;;;;7.45;50.47;101550.40;1640112;87;25698;-66
2021/03/06 09:59:22;;;;;;;6.42;2.87;;;;;;;7.47;51.92;101550.44;1639915;87;25641;-63
2021/03/06 10:01:49;;;;;;;6.80;3.40;;;;;;;7.60;51.36;101544.33;1640220;87;26360;-61
2021/03/06 10:04:22;;;;;;;5.70;3.02;;;;;;;7.82;51.74;101553.64;1639945;87;25812;-63
2021/03/06 10:06:59;;;;;;;4.97;3.30;;;;;;;8.20;48.15;101548.45;1826851;77;35272;-62
2021/03/06 10:09:33;;;;;;;6.53;3.37;;;;;;;7.91;47.50;101544.53;1788855;78;25735;-63
2021/03/06 10:12:07;;;;;;;6.30;3.27;;;;;;;7.95;48.07;101534.84;1789346;80;25775;-64
2021/03/06 10:14:35;;;;;;;5.03;2.60;;;;;;;8.37;48.04;101540.17;1825213;78;25741;-64
2021/03/06 10:17:05;;;;;;;5.25;2.10;;;;;;;8.69;47.14;101546.54;1832942;78;25623;-65
2021/03/06 10:19:49;;;;;;;3.42;1.72;;;;;;;8.82;42.57;101554.13;1832760;78;25634;-62
2021/03/06 10:22:19;;;;;;;2.65;1.27;;;;;;;8.51;43.49;101551.34;1831595;78;25883;-63
2021/03/06 10:25:06;;;;;;;2.80;1.52;;;;;;;8.42;41.79;101559.62;1832791;78;26945;-63
2021/03/06 10:27:37;;;;;;;4.80;2.20;;;;;;;8.10;41.11;101557.84;1832735;78;25686;-65
2021/03/06 10:30:18;;;;;;;5.08;2.08;;;;;;;7.83;41.90;101553.39;1832799;78;25686;-66
2021/03/06 10:32:56;;;;;;;5.15;2.17;;;;;;;7.98;44.16;101549.15;1832745;78;26372;-66
2021/03/06 10:35:50;;;;;;;6.62;2.60;;;;;;;8.36;44.52;101552.05;1832943;78;25865;-65
2021/03/06 10:38:28;;;;;;;4.95;2.52;;;;;;;8.46;43.10;101551.29;1832599;78;25747;-64
2021/03/06 10:40:58;;;;;;;4.58;2.87;;;;;;;8.45;42.61;101555.08;1832345;78;25654;-66
2021/03/06 10:43:35;;;;;;;4.83;2.60;;;;;;;8.47;40.35;101539.99;1796287;78;25640;-66
2021/03/06 10:46:20;;;;;;;5.85;3.37;;;;;;;8.07;41.10;101530.09;1789043;80;25636;-66
2021/03/06 10:49:05;;;;;;;4.58;3.15;;;;;;;7.97;41.28;101531.38;1789279;80;25608;-67
2021/03/06 10:51:54;;;;;;;6.33;3.62;;;;;;;8.29;43.73;101539.88;1846525;75;34739;-66
2021/03/06 10:54:19;;;;;;;9.35;5.05;;;;;;;8.74;44.72;101529.82;1823953;77;26380;-66
2021/03/06 10:56:46;;;;;;;8.10;4.35;;;;;;;9.37;44.17;101520.72;1829528;77;26116;-66
2021/03/06 10:59:14;;;;;;;5.60;3.95;;;;;;;9.71;43.80;101521.49;1765423;81;25976;-65
2021/03/06 11:01:53;;;;;;;7.40;4.10;;;;;;;10.18;43.84;101520.30;1794212;79;25413;-67
2021/03/06 11:04:33;;;;;;;11.10;4.70;;;;;;;10.62;43.77;101516.88;1762798;81;25940;-67
2021/03/06 11:07:09;;;;;;;9.70;4.70;;;;;;;10.98;40.44;101504.99;1843486;76;34971;-65
2021/03/06 11:09:39;;;;;;;10.03;5.30;;;;;;;10.68;39.48;101500.06;1801782;79;25479;-66
2021/03/06 11:12:21;;;;;;;8.55;5.17;;;;;;;10.61;40.12;101486.84;1784398;80;25713;-63
2021/03/06 11:15:12;;;;;;;11.03;5.28;;;;;;;10.62;38.79;101495.76;1784872;79;25633;-66
2021/03/06 11:17:45;;;;;;;13.10;5.47;;;;;;;10.68;40.85;101477.61;1784568;79;25752;-67
2021/03/06 11:20:16;;;;;;;10.53;5.80;;;;;;;11.00;41.51;101477.12;1785337;80;25722;-66
2021/03/06 11:22:46;;;;;;;7.90;5.03;;;;;;;11.12;40.38;101481.61;1796879;78;25649;-66
2021/03/06 11:25:16;;;;;;;9.90;5.50;;;;;;;11.23;40.43;101459.86;1812039;78;25707;-64
2021/03/06 11:27:58;;;;;;;7.83;4.53;;;;;;;11.38;37.33;101451.59;1810361;78;25667;-66
2021/03/06 11:30:32;;;;;;;9.50;4.53;;;;;;;11.26;37.54;101461.45;1810873;78;25757;-60
2021/03/06 11:33:02;;;;;;;10.08;4.45;;;;;;;11.06;36.85;101464.34;1812061;79;25847;-61
2021/03/06 11:35:29;;;;;;;7.20;4.40;;;;;;;10.79;38.68;101456.94;1811939;79;25764;-61
2021/03/06 11:37:58;;;;;;;8.45;4.55;;;;;;;10.27;36.60;101449.67;1812730;78;26872;-61
2021/03/06 11:40:28;;;;;;;9.10;4.80;;;;;;;9.65;36.83;101456.39;1811354;79;25770;-61
2021/03/06 11:42:57;;;;;;;10.00;4.67;;;;;;;8.92;37.64;101442.17;1814645;78;25672;-60
2021/03/06 11:45:25;;;;;;;10.00;4.70;;;;;;;8.72;39.78;101445.66;1814450;79;26237;-60
2021/03/06 11:47:54;;;;;;;8.80;4.72;;;;;;;9.17;41.17;101440.53;1814661;79;25708;-60
2021/03/06 11:50:26;;;;;;;9.25;4.42;;;;;;;9.57;41.34;101450.19;1814535;79;25934;-60
2021/03/06 11:52:53;;;;;;;7.17;4.97;;;;;;;9.42;39.02;101438.90;1796733;79;25641;-61
2021/03/06 11:55:21;;;;;;;7.85;4.70;;;;;;;8.90;36.80;101430.02;1814644;79;25592;-60
2021/03/06 11:57:48;;;;;;;7.55;4.95;;;;;;;8.32;39.17;101435.02;1814562;79;25650;-61
2021/03/06 12:00:18;;;;;;;10.32;4.85;;;;;;;8.01;39.71;101423.34;1814618;78;26026;-60
2021/03/06 12:02:47;;;;;;;10.35;5.45;;;;;;;7.72;40.24;101429.14;1814677;79;26653;-59
2021/03/06 12:05:16;;;;;;;8.83;4.90;;;;;;;7.23;40.08;101421.31;1815929;78;25592;-60
2021/03/06 12:07:44;;;;;;;8.95;4.83;;;;;;;6.91;41.54;101417.59;1829751;78;26321;-60
2021/03/06 12:10:17;;;;;;;11.27;5.13;;;;;;;6.92;42.91;101420.53;1829905;78;25766;-60
2021/03/06 12:12:46;;;;;;;7.75;3.98;;;;;;;7.23;41.94;101424.80;1829692;78;25730;-59
2021/03/06 12:15:15;;;;;;;9.00;4.12;;;;;;;7.03;41.39;101415.23;1829592;78;25748;-59
2021/03/06 12:17:44;;;;;;;7.67;4.22;;;;;;;6.72;42.33;101418.51;1829207;78;25737;-59
2021/03/06 12:20:14;;;;;;;6.25;4.10;;;;;;;6.36;41.78;101404.70;1829140;78;25267;-59